sensor_id;sensor_type;location;lat;lon;timestamp;pressure;altitude;pressure_sealevel;temperature;humidity
21828;BME280;11076;47.942;11.804;2023-03-17T00:01:00;94260.47;;;-0.30;100.00
21828;BME280;11076;47.942;11.804;2023-03-17T00:06:05;94255.78;;;-0.44;100.00
21828;BME280;11076;47.942;11.804;2023-03-17T00:11:11;94251.84;;;-0.40;100.00
21828;BME280;11076;47.942;11.804;2023-03-17T00:16:19;94251.81;;;-0.48;100.00
21828;BME280;11076;47.942;11.804;2023-03-17T00:21:28;94248.78;;;-0.62;100.00
21828;BME280;11076;47.942;11.804;2023-03-17T00:26:31;94241.44;;;-0.76;100.00
21828;BME280;11076;47.942;11.804;2023-03-17T00:31:34;94248.66;;;-0.78;100.00
21828;BME280;11076;47.942;11.804;2023-03-17T00:36:37;94246.63;;;-0.84;100.00
21828;BME280;11076;47.942;11.804;2023-03-17T00:41:40;94232.97;;;-0.88;100.00
21828;BME280;11076;47.942;11.804;2023-03-17T00:46:42;94226.91;;;-0.88;100.00
21828;BME280;11076;47.942;11.804;2023-03-17T00:51:46;94225.28;;;-0.89;100.00
21828;BME280;11076;47.942;11.804;2023-03-17T00:56:49;94202.34;;;-0.87;100.00
21828;BME280;11076;47.942;11.804;2023-03-17T01:01:53;94208.19;;;-0.93;100.00
21828;BME280;11076;47.942;11.804;2023-03-17T01:06:56;94201.91;;;-1.01;100.00
21828;BME280;11076;47.942;11.804;2023-03-17T01:11:59;94203.13;;;-1.13;100.00
21828;BME280;11076;47.942;11.804;2023-03-17T01:17:02;94199.22;;;-1.09;100.00
21828;BME280;11076;47.942;11.804;2023-03-17T01:22:07;94174.63;;;-1.08;100.00
21828;BME280;11076;47.942;11.804;2023-03-17T01:27:11;94179.00;;;-1.16;100.00
21828;BME280;11076;47.942;11.804;2023-03-17T01:32:13;94170.59;;;-1.20;100.00
21828;BME280;11076;47.942;11.804;2023-03-17T01:37:16;94169.91;;;-1.22;100.00
21828;BME280;11076;47.942;11.804;2023-03-17T01:42:18;94162.53;;;-1.27;100.00
21828;BME280;11076;47.942;11.804;2023-03-17T01:47:21;94154.19;;;-1.22;100.00
21828;BME280;11076;47.942;11.804;2023-03-17T01:52:26;94154.13;;;-1.30;100.00
21828;BME280;11076;47.942;11.804;2023-03-17T01:57:36;94152.78;;;-1.34;100.00
21828;BME280;11076;47.942;11.804;2023-03-17T02:02:45;94138.63;;;-1.42;100.00
21828;BME280;11076;47.942;11.804;2023-03-17T02:07:47;94119.97;;;-1.38;100.00
21828;BME280;11076;47.942;11.804;2023-03-17T02:12:54;94117.94;;;-1.27;100.00
21828;BME280;11076;47.942;11.804;2023-03-17T02:17:58;94120.84;;;-1.30;100.00
21828;BME280;11076;47.942;11.804;2023-03-17T02:23:01;94116.78;;;-1.24;100.00
21828;BME280;11076;47.942;11.804;2023-03-17T02:28:11;94109.97;;;-1.17;100.00
21828;BME280;11076;47.942;11.804;2023-03-17T02:33:15;94104.88;;;-1.18;100.00
21828;BME280;11076;47.942;11.804;2023-03-17T02:38:18;94102.53;;;-1.22;100.00
21828;BME280;11076;47.942;11.804;2023-03-17T02:43:20;94086.53;;;-1.10;100.00
21828;BME280;11076;47.942;11.804;2023-03-17T02:48:23;94088.06;;;-1.00;100.00
21828;BME280;11076;47.942;11.804;2023-03-17T02:53:26;94090.88;;;-1.01;100.00
21828;BME280;11076;47.942;11.804;2023-03-17T02:58:28;94083.28;;;-1.04;100.00
21828;BME280;11076;47.942;11.804;2023-03-17T03:03:30;94079.50;;;-1.10;100.00
21828;BME280;11076;47.942;11.804;2023-03-17T03:08:33;94084.84;;;-1.20;100.00
21828;BME280;11076;47.942;11.804;2023-03-17T03:13:35;94085.00;;;-1.21;100.00
21828;BME280;11076;47.942;11.804;2023-03-17T03:18:38;94085.72;;;-1.11;100.00
21828;BME280;11076;47.942;11.804;2023-03-17T03:23:41;94086.28;;;-0.99;100.00
21828;BME280;11076;47.942;11.804;2023-03-17T03:28:44;94084.44;;;-1.07;100.00
21828;BME280;11076;47.942;11.804;2023-03-17T03:33:46;94090.03;;;-1.02;100.00
21828;BME280;11076;47.942;11.804;2023-03-17T03:38:49;94082.63;;;-1.06;100.00
21828;BME280;11076;47.942;11.804;2023-03-17T03:43:52;94088.41;;;-1.03;100.00
21828;BME280;11076;47.942;11.804;2023-03-17T03:48:54;94078.13;;;-0.88;100.00
21828;BME280;11076;47.942;11.804;2023-03-17T03:53:56;94076.38;;;-0.79;100.00
21828;BME280;11076;47.942;11.804;2023-03-17T03:58:59;94079.81;;;-0.78;100.00
21828;BME280;11076;47.942;11.804;2023-03-17T04:04:02;94076.22;;;-0.77;100.00
21828;BME280;11076;47.942;11.804;2023-03-17T04:09:04;94068.03;;;-0.74;100.00
21828;BME280;11076;47.942;11.804;2023-03-17T04:14:07;94069.72;;;-0.65;100.00
21828;BME280;11076;47.942;11.804;2023-03-17T04:19:09;94061.72;;;-0.55;100.00
21828;BME280;11076;47.942;11.804;2023-03-17T04:24:12;94052.19;;;-0.48;100.00
21828;BME280;11076;47.942;11.804;2023-03-17T04:29:15;94050.25;;;-0.38;100.00
21828;BME280;11076;47.942;11.804;2023-03-17T04:34:18;94055.19;;;-0.35;100.00
21828;BME280;11076;47.942;11.804;2023-03-17T04:39:20;94049.97;;;-0.27;100.00
21828;BME280;11076;47.942;11.804;2023-03-17T04:44:23;94043.59;;;-0.16;100.00
21828;BME280;11076;47.942;11.804;2023-03-17T04:49:25;94051.97;;;-0.04;100.00
21828;BME280;11076;47.942;11.804;2023-03-17T04:54:28;94047.22;;;-0.01;100.00
21828;BME280;11076;47.942;11.804;2023-03-17T04:59:30;94054.28;;;0.07;100.00
21828;BME280;11076;47.942;11.804;2023-03-17T05:04:33;94061.19;;;0.08;100.00
21828;BME280;11076;47.942;11.804;2023-03-17T05:09:35;94062.16;;;0.07;100.00
21828;BME280;11076;47.942;11.804;2023-03-17T05:14:38;94051.00;;;0.05;100.00
21828;BME280;11076;47.942;11.804;2023-03-17T05:19:40;94055.59;;;-0.05;100.00
21828;BME280;11076;47.942;11.804;2023-03-17T05:24:43;94054.56;;;-0.12;100.00
21828;BME280;11076;47.942;11.804;2023-03-17T05:29:45;94056.53;;;-0.14;100.00
21828;BME280;11076;47.942;11.804;2023-03-17T05:34:50;94053.94;;;-0.06;100.00
21828;BME280;11076;47.942;11.804;2023-03-17T05:39:53;94051.84;;;0.38;100.00
21828;BME280;11076;47.942;11.804;2023-03-17T05:44:55;94050.47;;;0.75;100.00
21828;BME280;11076;47.942;11.804;2023-03-17T05:50:01;94051.34;;;0.68;100.00
21828;BME280;11076;47.942;11.804;2023-03-17T05:55:04;94053.88;;;1.09;100.00
21828;BME280;11076;47.942;11.804;2023-03-17T06:00:07;94060.56;;;1.28;100.00
21828;BME280;11076;47.942;11.804;2023-03-17T06:05:12;94054.34;;;1.60;100.00
21828;BME280;11076;47.942;11.804;2023-03-17T06:10:15;94054.56;;;1.82;100.00
21828;BME280;11076;47.942;11.804;2023-03-17T06:15:19;94055.50;;;1.89;99.01
21828;BME280;11076;47.942;11.804;2023-03-17T06:20:21;94058.00;;;2.13;98.51
21828;BME280;11076;47.942;11.804;2023-03-17T06:25:24;94056.28;;;2.44;98.54
21828;BME280;11076;47.942;11.804;2023-03-17T06:30:26;94055.97;;;2.62;98.42
21828;BME280;11076;47.942;11.804;2023-03-17T06:35:30;94042.22;;;2.66;97.24
21828;BME280;11076;47.942;11.804;2023-03-17T06:40:34;94037.66;;;2.60;96.46
21828;BME280;11076;47.942;11.804;2023-03-17T06:45:36;94029.25;;;2.65;95.52
21828;BME280;11076;47.942;11.804;2023-03-17T06:50:39;94034.53;;;2.65;94.98
21828;BME280;11076;47.942;11.804;2023-03-17T06:55:41;94034.16;;;2.68;94.58
21828;BME280;11076;47.942;11.804;2023-03-17T07:00:44;94036.44;;;2.71;92.98
21828;BME280;11076;47.942;11.804;2023-03-17T07:05:50;94044.91;;;2.81;92.13
21828;BME280;11076;47.942;11.804;2023-03-17T07:10:53;94048.97;;;3.07;91.43
21828;BME280;11076;47.942;11.804;2023-03-17T07:15:57;94044.47;;;3.22;90.79
21828;BME280;11076;47.942;11.804;2023-03-17T07:21:02;94046.59;;;3.27;90.23
21828;BME280;11076;47.942;11.804;2023-03-17T07:26:04;94055.88;;;3.37;87.85
21828;BME280;11076;47.942;11.804;2023-03-17T07:31:06;94055.16;;;3.44;84.73
21828;BME280;11076;47.942;11.804;2023-03-17T07:36:12;94048.22;;;3.72;84.37
21828;BME280;11076;47.942;11.804;2023-03-17T07:41:16;94051.31;;;3.97;84.96
21828;BME280;11076;47.942;11.804;2023-03-17T07:46:19;94047.16;;;4.25;84.11
21828;BME280;11076;47.942;11.804;2023-03-17T07:51:22;94055.47;;;4.65;83.64
21828;BME280;11076;47.942;11.804;2023-03-17T07:56:27;94055.16;;;5.03;83.47
21828;BME280;11076;47.942;11.804;2023-03-17T08:01:30;94051.34;;;5.47;82.81
21828;BME280;11076;47.942;11.804;2023-03-17T08:06:33;94045.63;;;5.85;81.07
21828;BME280;11076;47.942;11.804;2023-03-17T08:11:36;94058.16;;;5.97;78.34
21828;BME280;11076;47.942;11.804;2023-03-17T08:16:38;94045.56;;;6.20;76.93
21828;BME280;11076;47.942;11.804;2023-03-17T08:21:41;94041.97;;;6.47;78.85
21828;BME280;11076;47.942;11.804;2023-03-17T08:26:47;94029.94;;;6.71;76.09
21828;BME280;11076;47.942;11.804;2023-03-17T08:31:50;94032.19;;;6.94;76.26
21828;BME280;11076;47.942;11.804;2023-03-17T08:36:52;94040.13;;;7.21;73.52
21828;BME280;11076;47.942;11.804;2023-03-17T08:41:55;94045.19;;;7.49;72.93
21828;BME280;11076;47.942;11.804;2023-03-17T08:46:57;94039.44;;;7.66;68.46
21828;BME280;11076;47.942;11.804;2023-03-17T08:52:00;94022.56;;;7.92;71.70
21828;BME280;11076;47.942;11.804;2023-03-17T08:57:03;94018.13;;;8.24;70.91
21828;BME280;11076;47.942;11.804;2023-03-17T09:02:08;94021.91;;;8.48;67.43
21828;BME280;11076;47.942;11.804;2023-03-17T09:07:12;94012.69;;;8.76;65.79
21828;BME280;11076;47.942;11.804;2023-03-17T09:12:14;94020.63;;;9.08;63.81
21828;BME280;11076;47.942;11.804;2023-03-17T09:17:16;94019.19;;;9.30;62.92
21828;BME280;11076;47.942;11.804;2023-03-17T09:22:19;94025.31;;;9.56;62.06
21828;BME280;11076;47.942;11.804;2023-03-17T09:27:21;94029.91;;;9.86;62.00
21828;BME280;11076;47.942;11.804;2023-03-17T09:32:23;94025.03;;;10.01;61.34
21828;BME280;11076;47.942;11.804;2023-03-17T09:37:26;94023.50;;;10.24;59.78
21828;BME280;11076;47.942;11.804;2023-03-17T09:42:56;94016.19;;;10.49;58.63
21828;BME280;11076;47.942;11.804;2023-03-17T09:53:30;94008.56;;;11.19;54.66
21828;BME280;11076;47.942;11.804;2023-03-17T09:58:36;93999.59;;;11.48;52.75
21828;BME280;11076;47.942;11.804;2023-03-17T10:03:39;94000.59;;;12.06;55.35
21828;BME280;11076;47.942;11.804;2023-03-17T10:09:04;93995.53;;;12.22;51.91
21828;BME280;11076;47.942;11.804;2023-03-17T10:19:39;93987.09;;;12.59;52.75
21828;BME280;11076;47.942;11.804;2023-03-17T10:24:48;93984.13;;;12.72;52.05
21828;BME280;11076;47.942;11.804;2023-03-17T10:29:51;93981.63;;;12.99;52.45
21828;BME280;11076;47.942;11.804;2023-03-17T10:34:54;93977.91;;;13.17;51.05
21828;BME280;11076;47.942;11.804;2023-03-17T10:39:56;93988.38;;;13.02;50.28
21828;BME280;11076;47.942;11.804;2023-03-17T10:45:12;93976.97;;;13.28;51.36
21828;BME280;11076;47.942;11.804;2023-03-17T10:50:31;93962.75;;;13.45;50.22
21828;BME280;11076;47.942;11.804;2023-03-17T11:00:54;93963.84;;;14.10;51.76
21828;BME280;11076;47.942;11.804;2023-03-17T11:06:02;93966.44;;;14.49;50.28
21828;BME280;11076;47.942;11.804;2023-03-17T11:11:08;93960.03;;;14.77;50.21
21828;BME280;11076;47.942;11.804;2023-03-17T11:21:29;93949.78;;;15.06;49.06
21828;BME280;11076;47.942;11.804;2023-03-17T11:31:46;93933.59;;;15.01;48.96
21828;BME280;11076;47.942;11.804;2023-03-17T11:37:03;93926.81;;;15.31;48.05
21828;BME280;11076;47.942;11.804;2023-03-17T11:42:47;93920.19;;;15.49;47.24
21828;BME280;11076;47.942;11.804;2023-03-17T11:53:23;93919.84;;;15.83;45.17
21828;BME280;11076;47.942;11.804;2023-03-17T12:03:46;93907.63;;;16.28;44.59
21828;BME280;11076;47.942;11.804;2023-03-17T12:08:57;93904.13;;;16.27;45.29
21828;BME280;11076;47.942;11.804;2023-03-17T12:14:04;93913.22;;;16.11;45.15
21828;BME280;11076;47.942;11.804;2023-03-17T12:19:29;93903.41;;;15.89;45.02
21828;BME280;11076;47.942;11.804;2023-03-17T12:25:57;93901.22;;;15.76;44.80
21828;BME280;11076;47.942;11.804;2023-03-17T12:30:31;93895.06;;;15.86;45.51
21828;BME280;11076;47.942;11.804;2023-03-17T12:35:36;93892.94;;;15.88;46.25
21828;BME280;11076;47.942;11.804;2023-03-17T12:56:45;93863.94;;;16.41;45.32
21828;BME280;11076;47.942;11.804;2023-03-17T13:02:07;93853.69;;;16.59;45.96
21828;BME280;11076;47.942;11.804;2023-03-17T13:07:21;93857.22;;;16.54;45.00
21828;BME280;11076;47.942;11.804;2023-03-17T13:17:42;93842.38;;;16.41;44.71
21828;BME280;11076;47.942;11.804;2023-03-17T13:33:20;93841.00;;;16.64;46.82
21828;BME280;11076;47.942;11.804;2023-03-17T13:48:48;93831.84;;;16.70;44.30
21828;BME280;11076;47.942;11.804;2023-03-17T13:53:58;93837.00;;;16.82;44.45
21828;BME280;11076;47.942;11.804;2023-03-17T13:59:34;93828.88;;;16.57;43.01
21828;BME280;11076;47.942;11.804;2023-03-17T14:04:53;93832.09;;;16.69;44.19
21828;BME280;11076;47.942;11.804;2023-03-17T14:10:00;93825.91;;;16.89;45.38
21828;BME280;11076;47.942;11.804;2023-03-17T14:15:19;93818.63;;;17.00;45.48
21828;BME280;11076;47.942;11.804;2023-03-17T14:20:24;93817.03;;;16.83;45.55
21828;BME280;11076;47.942;11.804;2023-03-17T14:25:38;93810.28;;;16.86;46.87
21828;BME280;11076;47.942;11.804;2023-03-17T14:30:49;93810.00;;;16.77;47.14
21828;BME280;11076;47.942;11.804;2023-03-17T14:35:55;93811.06;;;16.66;48.24
21828;BME280;11076;47.942;11.804;2023-03-17T14:41:28;93811.06;;;16.61;48.15
21828;BME280;11076;47.942;11.804;2023-03-17T14:46:34;93804.03;;;16.65;48.76
21828;BME280;11076;47.942;11.804;2023-03-17T14:51:41;93794.06;;;16.35;49.24
21828;BME280;11076;47.942;11.804;2023-03-17T14:56:52;93787.31;;;16.27;50.39
21828;BME280;11076;47.942;11.804;2023-03-17T15:02:26;93792.13;;;15.94;51.15
21828;BME280;11076;47.942;11.804;2023-03-17T15:07:40;93793.16;;;15.83;51.97
21828;BME280;11076;47.942;11.804;2023-03-17T15:12:44;93796.88;;;15.71;53.00
21828;BME280;11076;47.942;11.804;2023-03-17T15:17:56;93786.44;;;15.85;53.85
21828;BME280;11076;47.942;11.804;2023-03-17T15:23:13;93783.22;;;15.88;53.86
21828;BME280;11076;47.942;11.804;2023-03-17T15:28:19;93779.22;;;16.06;54.14
21828;BME280;11076;47.942;11.804;2023-03-17T15:38:31;93783.50;;;15.92;53.71
21828;BME280;11076;47.942;11.804;2023-03-17T15:43:34;93766.69;;;15.69;54.07
21828;BME280;11076;47.942;11.804;2023-03-17T15:48:37;93760.16;;;15.45;55.11
21828;BME280;11076;47.942;11.804;2023-03-17T15:53:40;93759.00;;;15.25;56.39
21828;BME280;11076;47.942;11.804;2023-03-17T15:58:42;93762.03;;;14.81;56.37
21828;BME280;11076;47.942;11.804;2023-03-17T16:03:46;93760.69;;;14.46;56.04
21828;BME280;11076;47.942;11.804;2023-03-17T16:08:49;93747.69;;;14.33;56.16
21828;BME280;11076;47.942;11.804;2023-03-17T16:13:51;93756.16;;;14.15;57.07
21828;BME280;11076;47.942;11.804;2023-03-17T16:18:54;93768.28;;;13.90;58.00
21828;BME280;11076;47.942;11.804;2023-03-17T16:23:57;93757.28;;;13.64;59.17
21828;BME280;11076;47.942;11.804;2023-03-17T16:28:59;93761.41;;;13.28;60.69
21828;BME280;11076;47.942;11.804;2023-03-17T16:34:01;93749.69;;;12.90;62.16
21828;BME280;11076;47.942;11.804;2023-03-17T16:39:05;93765.94;;;12.44;64.11
21828;BME280;11076;47.942;11.804;2023-03-17T16:44:10;93768.47;;;12.00;65.48
21828;BME280;11076;47.942;11.804;2023-03-17T16:49:18;93783.78;;;11.59;66.84
21828;BME280;11076;47.942;11.804;2023-03-17T16:54:20;93774.47;;;11.33;67.61
21828;BME280;11076;47.942;11.804;2023-03-17T16:59:23;93779.53;;;11.06;68.63
21828;BME280;11076;47.942;11.804;2023-03-17T17:04:29;93774.59;;;10.62;69.89
21828;BME280;11076;47.942;11.804;2023-03-17T17:09:32;93784.72;;;10.25;71.50
21828;BME280;11076;47.942;11.804;2023-03-17T17:14:34;93788.00;;;9.96;72.03
21828;BME280;11076;47.942;11.804;2023-03-17T17:19:36;93793.03;;;9.63;74.14
21828;BME280;11076;47.942;11.804;2023-03-17T17:24:39;93793.41;;;9.36;74.93
21828;BME280;11076;47.942;11.804;2023-03-17T17:29:41;93786.41;;;9.23;76.02
21828;BME280;11076;47.942;11.804;2023-03-17T17:34:44;93789.97;;;8.99;76.73
21828;BME280;11076;47.942;11.804;2023-03-17T17:39:47;93791.19;;;8.84;78.26
21828;BME280;11076;47.942;11.804;2023-03-17T17:44:49;93785.41;;;8.87;78.86
21828;BME280;11076;47.942;11.804;2023-03-17T17:49:52;93780.88;;;8.88;80.65
21828;BME280;11076;47.942;11.804;2023-03-17T17:54:54;93783.00;;;8.79;81.45
21828;BME280;11076;47.942;11.804;2023-03-17T17:59:58;93766.31;;;8.72;82.12
21828;BME280;11076;47.942;11.804;2023-03-17T18:05:00;93774.31;;;8.53;83.34
21828;BME280;11076;47.942;11.804;2023-03-17T18:10:04;93774.41;;;8.40;84.29
21828;BME280;11076;47.942;11.804;2023-03-17T18:15:07;93775.69;;;8.31;84.33
21828;BME280;11076;47.942;11.804;2023-03-17T18:20:15;93774.41;;;8.40;84.18
21828;BME280;11076;47.942;11.804;2023-03-17T18:25:18;93764.50;;;8.47;84.82
21828;BME280;11076;47.942;11.804;2023-03-17T18:30:24;93773.00;;;8.38;84.56
21828;BME280;11076;47.942;11.804;2023-03-17T18:35:28;93764.84;;;8.07;85.58
21828;BME280;11076;47.942;11.804;2023-03-17T18:40:30;93771.59;;;7.85;86.06
21828;BME280;11076;47.942;11.804;2023-03-17T18:45:33;93763.97;;;7.63;86.79
21828;BME280;11076;47.942;11.804;2023-03-17T18:50:35;93767.97;;;7.47;88.16
21828;BME280;11076;47.942;11.804;2023-03-17T18:55:38;93768.25;;;7.39;88.99
21828;BME280;11076;47.942;11.804;2023-03-17T19:00:42;93762.91;;;7.39;90.95
21828;BME280;11076;47.942;11.804;2023-03-17T19:05:44;93766.16;;;7.09;91.95
21828;BME280;11076;47.942;11.804;2023-03-17T19:10:47;93764.75;;;7.00;92.68
21828;BME280;11076;47.942;11.804;2023-03-17T19:15:49;93758.69;;;6.86;93.39
21828;BME280;11076;47.942;11.804;2023-03-17T19:20:54;93758.75;;;6.73;94.10
21828;BME280;11076;47.942;11.804;2023-03-17T19:25:57;93761.25;;;6.61;93.85
21828;BME280;11076;47.942;11.804;2023-03-17T19:30:59;93763.53;;;6.44;93.48
21828;BME280;11076;47.942;11.804;2023-03-17T19:36:08;93767.47;;;6.35;94.15
21828;BME280;11076;47.942;11.804;2023-03-17T19:41:10;93771.56;;;6.31;93.71
21828;BME280;11076;47.942;11.804;2023-03-17T19:46:13;93777.28;;;6.21;94.05
21828;BME280;11076;47.942;11.804;2023-03-17T19:51:15;93785.06;;;6.09;95.46
21828;BME280;11076;47.942;11.804;2023-03-17T19:56:19;93800.56;;;6.12;98.20
21828;BME280;11076;47.942;11.804;2023-03-17T20:01:22;93801.38;;;6.00;98.14
21828;BME280;11076;47.942;11.804;2023-03-17T20:06:24;93796.84;;;5.87;100.00
21828;BME280;11076;47.942;11.804;2023-03-17T20:11:27;93801.97;;;5.82;100.00
21828;BME280;11076;47.942;11.804;2023-03-17T20:16:30;93793.38;;;5.66;100.00
21828;BME280;11076;47.942;11.804;2023-03-17T20:21:34;93792.97;;;5.49;99.98
21828;BME280;11076;47.942;11.804;2023-03-17T20:26:38;93796.63;;;5.42;100.00
21828;BME280;11076;47.942;11.804;2023-03-17T20:31:42;93798.44;;;5.34;100.00
21828;BME280;11076;47.942;11.804;2023-03-17T20:36:45;93804.56;;;5.35;100.00
21828;BME280;11076;47.942;11.804;2023-03-17T20:41:49;93807.81;;;5.37;100.00
21828;BME280;11076;47.942;11.804;2023-03-17T20:46:52;93803.53;;;5.29;100.00
21828;BME280;11076;47.942;11.804;2023-03-17T20:51:55;93808.56;;;5.11;100.00
21828;BME280;11076;47.942;11.804;2023-03-17T20:56:57;93817.91;;;5.00;100.00
21828;BME280;11076;47.942;11.804;2023-03-17T21:02:01;93818.91;;;4.92;100.00
21828;BME280;11076;47.942;11.804;2023-03-17T21:07:06;93832.09;;;4.79;100.00
21828;BME280;11076;47.942;11.804;2023-03-17T21:12:18;93825.97;;;4.72;100.00
21828;BME280;11076;47.942;11.804;2023-03-17T21:17:21;93824.31;;;4.71;100.00
21828;BME280;11076;47.942;11.804;2023-03-17T21:22:25;93827.56;;;4.73;100.00
21828;BME280;11076;47.942;11.804;2023-03-17T21:27:27;93832.94;;;4.80;100.00
21828;BME280;11076;47.942;11.804;2023-03-17T21:32:30;93847.59;;;4.82;100.00
21828;BME280;11076;47.942;11.804;2023-03-17T21:37:33;93852.09;;;4.82;100.00
21828;BME280;11076;47.942;11.804;2023-03-17T21:42:36;93848.34;;;4.69;100.00
21828;BME280;11076;47.942;11.804;2023-03-17T21:47:38;93855.28;;;4.70;100.00
21828;BME280;11076;47.942;11.804;2023-03-17T21:52:42;93858.53;;;4.66;100.00
21828;BME280;11076;47.942;11.804;2023-03-17T21:57:44;93860.38;;;4.72;100.00
21828;BME280;11076;47.942;11.804;2023-03-17T22:02:48;93864.59;;;4.60;100.00
21828;BME280;11076;47.942;11.804;2023-03-17T22:07:51;93870.50;;;4.62;100.00
21828;BME280;11076;47.942;11.804;2023-03-17T22:12:54;93878.81;;;4.52;100.00
21828;BME280;11076;47.942;11.804;2023-03-17T22:17:57;93873.09;;;4.55;100.00
21828;BME280;11076;47.942;11.804;2023-03-17T22:23:00;93873.63;;;4.72;100.00
21828;BME280;11076;47.942;11.804;2023-03-17T22:28:03;93872.44;;;4.81;100.00
21828;BME280;11076;47.942;11.804;2023-03-17T22:33:05;93877.81;;;5.01;100.00
21828;BME280;11076;47.942;11.804;2023-03-17T22:38:09;93890.16;;;5.22;100.00
21828;BME280;11076;47.942;11.804;2023-03-17T22:43:12;93876.75;;;5.37;100.00
21828;BME280;11076;47.942;11.804;2023-03-17T22:48:14;93876.78;;;5.44;100.00
21828;BME280;11076;47.942;11.804;2023-03-17T22:53:17;93892.69;;;5.44;100.00
21828;BME280;11076;47.942;11.804;2023-03-17T22:58:19;93899.19;;;5.41;100.00
21828;BME280;11076;47.942;11.804;2023-03-17T23:03:23;93902.25;;;5.45;100.00
21828;BME280;11076;47.942;11.804;2023-03-17T23:08:28;93902.66;;;5.42;100.00
21828;BME280;11076;47.942;11.804;2023-03-17T23:13:31;93910.81;;;5.33;100.00
21828;BME280;11076;47.942;11.804;2023-03-17T23:18:33;93921.22;;;5.42;100.00
21828;BME280;11076;47.942;11.804;2023-03-17T23:23:36;93916.75;;;5.42;100.00
21828;BME280;11076;47.942;11.804;2023-03-17T23:28:39;93929.81;;;5.57;100.00
21828;BME280;11076;47.942;11.804;2023-03-17T23:33:42;93925.31;;;5.51;100.00
21828;BME280;11076;47.942;11.804;2023-03-17T23:38:45;93930.66;;;5.57;100.00
21828;BME280;11076;47.942;11.804;2023-03-17T23:43:47;93933.13;;;5.59;100.00
21828;BME280;11076;47.942;11.804;2023-03-17T23:48:50;93930.28;;;5.67;100.00
21828;BME280;11076;47.942;11.804;2023-03-17T23:53:53;93936.22;;;5.69;100.00
21828;BME280;11076;47.942;11.804;2023-03-17T23:58:55;93938.06;;;5.75;100.00
